Decoded Metar for K2G4 (GARRETT CO in MD, USA) (IATA:2G4) | Meteo·Mobile Aviation Weather
aviador You're here:

K2G4 Decoded Metar

GARRETT CO in MD, USA
Report Time2018-09-19 20:35:00
UTC Time2018-09-19 20:49:46
Flight Rules vfr VFR
Wind340° at 04 kt
W.Rank340° ranks 24
Current wind is below 340° avg. (4.7)
Visibility9999 m
Phenomena:N/A
Clouds:Scattered 017 Hf
Scattered 022 Hf
Scattered 028 Hf
Expected CloudBase > 1,600 ft AGL from Temp-Dew spread
CeilingNone
Temp21°C (ISA +12)
Dew Point17°C (78% RH)
QNH1019 hPa
Density Alt4,373 ft
Elevation2,933 ft
Report Wrong Elevation
Raw Report
K2G4 192035Z AUTO 34004KT 10SM SCT017 SCT022 SCT028 21/17 A3010
RMK AO1=

Extra information for K2G4:More info

Metar Taf Metar & Taf Last 4 Metars F.Rules Stats Wind Profile Meteogram Temp Stats Airport Information Weather charts Add Link Nearby VenuesMetar ALERT Operation Metar Decoded Social comments

AIRNAV info for K2G4